Cairns Corner, California
Current Conditions -  °F | °C
As of 9:35 PM on Tuesday 25 Nov 2014 (Local Time) from KPTV Reporting Station
Clear Clear  
Wind Chill: 46°   Ceiling: Unl
Heat Index: 48°   Visibility: 5mi
Dew Point: 41°   Wind: 5mph
Humidity: 76%   Direction: 100°E
Pressure: 30.4"   Gusts: NA
Location:  36.2085°N, 119.068°W
Report Text: KPTV 260535Z AUTO 10004KT 5SM CLR 09/05 A3040 RMK AO1
Loading
Personal Weather Stations






























Interactive Weather Map New forecast layout! Learn more

10-Day Weather Forecast

Advertisements
Track Severe Weather on mobile